Aviation Digital Data Service (ADDS)

Output produced by METARs form (1339 UTC 19 April 2018)
found at http://aviationweather.gov/adds/metars/
 
KPGV 191121Z 1912/2012 22010KT P6SM SKC 
     FM191500 26016KT P6SM BKN050 
     FM200000 33009KT P6SM SKC AMD LTD TO CLD VIS AND WIND